메인 페이지
METAR-TAF:

METAR-TAF

공항 :

리야드, 사우디아라비아

위도: 24-43N, 경도: 046-44E, 고도: 635m

METAR: 누락

시각: 02:10 (23:10 UTC)

예보

예보는 12 시간 10분 전, 11:00시(UTC)에 발표되었습니다.
예보 대상 시간: 27일 12시부터 28일 18시까지 (UTC)
동북동10kt, 순간 최대 풍속 20kt
시정: 7000m
일시적
27일 12시부터 27일 18시까지 (UTC)
시정: 3500m
황사, 날린먼지
전환 중
27일 18시부터 27일 20시까지 (UTC)
10kt

TAF: OERY 271100Z 2712/2818 06010G20KT 7000 NSC TEMPO 2712/2718 3500 DU BLDU BECMG 2718/2720 09010KT

4,000개 이상의 공항 관측 자료 및 예보 (METAR 및 TAF 보고).

지도상에서 검색 가능한 기상관측소가 노란 점과 빨간 점으로 표시되어 있습니다.

기상관측소 명을 보려면 표시 위로 마우스를 이동하세요.

날씨 관측과 예보를 보려면 클릭하세요.

지도 변경 : 확대하려면 엑스 표시가 있는 녹색 버튼, 축소하려면 빼기 표시가 있는 녹색 버튼, 다음 페이지의 지도를 보려면 녹색 화살표를 클릭하세요.


METAR-TAF: